createdAt,value
2019-04-09T00:01:13.766Z,12.10
2019-04-09T00:03:44.026Z,12.00
2019-04-09T00:06:14.737Z,12.00
2019-04-09T00:08:45.710Z,12.00
2019-04-09T00:11:15.814Z,12.00
2019-04-09T00:13:46.012Z,12.00
2019-04-09T00:16:16.582Z,12.00
2019-04-09T00:18:46.805Z,12.10
2019-04-09T00:21:17.015Z,12.10
2019-04-09T00:23:47.198Z,12.10
2019-04-09T00:26:17.781Z,12.20
2019-04-09T00:28:47.956Z,12.20
2019-04-09T00:31:18.465Z,12.20
2019-04-09T00:33:48.969Z,12.20
2019-04-09T00:36:19.652Z,12.20
2019-04-09T00:38:49.793Z,12.10
2019-04-09T00:41:21.757Z,12.00
2019-04-09T00:43:51.861Z,12.10
2019-04-09T00:46:22.076Z,12.20
2019-04-09T00:48:52.224Z,12.20
2019-04-09T00:51:22.495Z,12.20
2019-04-09T00:53:52.491Z,12.30
2019-04-09T00:56:22.635Z,12.40
2019-04-09T00:58:52.801Z,12.40
2019-04-09T01:01:24.716Z,12.30
2019-04-09T01:03:54.989Z,12.20
2019-04-09T01:06:25.242Z,12.20
2019-04-09T01:08:56.195Z,12.10
2019-04-09T01:11:26.303Z,12.10
2019-04-09T01:13:57.441Z,12.00
2019-04-09T01:16:27.322Z,12.00
2019-04-09T01:19:08.457Z,12.00
2019-04-09T01:21:29.483Z,11.90
2019-04-09T01:23:59.787Z,11.90
2019-04-09T01:26:38.379Z,11.90
2019-04-09T01:29:10.267Z,11.90
2019-04-09T01:31:48.334Z,12.00
2019-04-09T01:34:32.027Z,12.00
2019-04-09T01:37:20.335Z,11.90
2019-04-09T01:40:01.091Z,11.70
2019-04-09T01:42:49.533Z,11.70
2019-04-09T01:45:37.461Z,11.80
2019-04-09T01:48:25.851Z,11.80
2019-04-09T01:50:57.910Z,11.70
2019-04-09T01:53:32.315Z,11.80
2019-04-09T01:56:20.734Z,11.70
2019-04-09T01:58:52.440Z,11.80
2019-04-09T02:01:28.040Z,11.70
2019-04-09T02:04:00.273Z,11.70
2019-04-09T02:06:41.572Z,11.60
2019-04-09T02:09:25.801Z,11.60
2019-04-09T02:11:59.925Z,11.70
2019-04-09T02:14:50.004Z,11.60
2019-04-09T02:17:24.644Z,11.50
2019-04-09T02:19:56.468Z,11.50
2019-04-09T02:22:44.915Z,11.60
2019-04-09T02:25:23.033Z,11.50
2019-04-09T02:28:11.131Z,11.40
2019-04-09T02:31:02.210Z,11.20
2019-04-09T02:33:34.109Z,11.20
2019-04-09T02:36:21.971Z,11.10
2019-04-09T02:39:03.069Z,11.10
2019-04-09T02:41:41.375Z,11.30
2019-04-09T02:44:13.511Z,11.40
2019-04-09T02:46:54.153Z,11.30
2019-04-09T02:49:26.657Z,11.40
2019-04-09T02:52:11.280Z,11.40
2019-04-09T02:54:44.067Z,11.40
2019-04-09T02:57:30.955Z,11.50
2019-04-09T03:00:18.985Z,11.50
2019-04-09T03:03:07.259Z,11.60
2019-04-09T03:05:55.564Z,11.60
2019-04-09T03:08:43.701Z,11.60
2019-04-09T03:11:15.489Z,11.60
2019-04-09T03:13:56.178Z,11.50
2019-04-09T03:16:37.876Z,11.40
2019-04-09T03:22:27.242Z,11.20
2019-04-09T03:24:59.274Z,11.30
2019-04-09T03:27:31.183Z,11.40
2019-04-09T03:30:05.977Z,11.50
2019-04-09T03:32:44.494Z,11.50
2019-04-09T03:35:23.283Z,11.60
2019-04-09T03:37:54.829Z,11.60
2019-04-09T03:40:29.606Z,11.60
2019-04-09T03:43:04.025Z,11.60
2019-04-09T03:45:54.152Z,11.60
2019-04-09T03:48:25.996Z,11.50
2019-04-09T03:51:06.890Z,11.40
2019-04-09T03:53:39.238Z,11.40
2019-04-09T03:56:18.083Z,11.40
2019-04-09T03:59:00.357Z,11.40
2019-04-09T04:01:41.162Z,11.30
2019-04-09T04:04:13.023Z,11.20
2019-04-09T04:07:20.390Z,11.20
2019-04-09T04:10:07.495Z,11.30
2019-04-09T04:12:55.634Z,11.20
2019-04-09T04:15:43.340Z,11.10
2019-04-09T04:18:34.485Z,11.10
2019-04-09T04:21:07.978Z,11.10
2019-04-09T04:23:39.511Z,11.20
2019-04-09T04:26:28.728Z,11.20
2019-04-09T04:29:19.180Z,11.10
2019-04-09T04:31:54.853Z,11.00
2019-04-09T04:34:32.343Z,10.90
2019-04-09T04:37:13.324Z,10.90
2019-04-09T04:40:02.172Z,10.90
2019-04-09T04:42:43.763Z,10.90
2019-04-09T04:45:18.495Z,11.00
2019-04-09T04:48:06.868Z,10.90
2019-04-09T04:50:41.781Z,11.00
2019-04-09T04:53:22.518Z,11.10
2019-04-09T04:55:54.251Z,11.00
2019-04-09T04:58:48.094Z,11.10
2019-04-09T05:01:26.551Z,11.10
2019-04-09T05:04:13.343Z,11.10
2019-04-09T05:06:47.897Z,11.00
2019-04-09T05:09:19.574Z,10.90
2019-04-09T05:12:09.766Z,11.10
2019-04-09T05:14:53.433Z,11.10
2019-04-09T05:17:28.828Z,11.40
2019-04-09T05:20:13.125Z,11.60
2019-04-09T05:22:50.056Z,11.80
2019-04-09T05:25:38.342Z,12.00
2019-04-09T05:28:12.784Z,12.20
2019-04-09T05:30:48.557Z,12.40
2019-04-09T05:33:22.466Z,12.60
2019-04-09T05:36:11.818Z,12.60
2019-04-09T05:38:49.506Z,12.70
2019-04-09T05:41:36.129Z,12.90
2019-04-09T05:44:22.320Z,13.00
2019-04-09T05:46:54.220Z,13.10
2019-04-09T05:49:32.120Z,13.10
2019-04-09T05:52:20.787Z,13.20
2019-04-09T05:54:58.281Z,13.40
2019-04-09T05:57:46.666Z,13.40
2019-04-09T06:00:21.437Z,13.40
2019-04-09T06:02:53.561Z,13.30
2019-04-09T06:05:28.898Z,13.30
2019-04-09T06:08:01.742Z,13.40
2019-04-09T06:10:32.254Z,13.50
2019-04-09T06:13:02.987Z,13.50
2019-04-09T06:15:33.242Z,13.60
2019-04-09T06:18:03.176Z,13.60
2019-04-09T06:20:34.050Z,13.80
2019-04-09T06:23:04.271Z,13.90
2019-04-09T06:25:35.960Z,14.10
2019-04-09T06:28:06.236Z,14.20
2019-04-09T06:30:36.276Z,14.40
2019-04-09T06:33:08.039Z,14.50
2019-04-09T06:35:46.325Z,14.60
2019-04-09T06:38:35.484Z,14.60
2019-04-09T06:41:24.053Z,14.80
2019-04-09T06:44:04.899Z,14.80
2019-04-09T06:46:42.145Z,15.00
2019-04-09T06:49:17.775Z,15.00
2019-04-09T06:52:04.940Z,15.20
2019-04-09T06:55:00.751Z,15.40
2019-04-09T06:57:49.917Z,15.80
2019-04-09T07:00:41.066Z,16.00
2019-04-09T07:03:24.727Z,16.30
2019-04-09T07:06:14.571Z,16.60
2019-04-09T07:08:49.326Z,16.90
2019-04-09T07:11:24.509Z,17.20
2019-04-09T07:14:08.411Z,17.30
2019-04-09T07:16:52.286Z,17.50
2019-04-09T07:19:41.167Z,17.60
2019-04-09T07:22:15.050Z,17.90
2019-04-09T07:24:55.137Z,18.20
2019-04-09T07:27:28.554Z,18.30
2019-04-09T07:30:11.138Z,18.60
2019-04-09T07:32:46.025Z,19.00
2019-04-09T07:35:29.527Z,19.10
2019-04-09T07:38:00.087Z,19.00
2019-04-09T07:40:44.793Z,19.10
2019-04-09T07:43:21.117Z,19.10
2019-04-09T07:46:04.880Z,19.30
2019-04-09T07:48:40.463Z,19.40
2019-04-09T07:51:30.706Z,19.50
2019-04-09T07:54:04.669Z,19.70
2019-04-09T07:56:36.590Z,19.80
2019-04-09T08:01:53.812Z,20.30
2019-04-09T08:04:26.133Z,20.50
2019-04-09T08:07:02.280Z,20.60
2019-04-09T08:09:33.641Z,20.80
2019-04-09T08:12:21.894Z,20.90
2019-04-09T08:15:08.943Z,21.20
2019-04-09T08:18:03.200Z,21.60
2019-04-09T08:20:35.744Z,21.80
2019-04-09T08:23:27.011Z,21.70
2019-04-09T08:26:15.063Z,22.10
2019-04-09T08:28:56.280Z,22.40
2019-04-09T08:31:28.697Z,22.80
2019-04-09T08:34:16.623Z,23.10
2019-04-09T08:36:55.697Z,23.50
2019-04-09T08:39:32.878Z,23.50
2019-04-09T08:42:06.579Z,23.50
2019-04-09T08:44:39.612Z,23.70
2019-04-09T08:47:17.142Z,23.70
2019-04-09T08:49:53.350Z,23.90
2019-04-09T08:52:40.890Z,24.10
2019-04-09T08:55:11.704Z,24.30
2019-04-09T08:57:52.415Z,24.30
2019-04-09T09:01:08.269Z,24.40
2019-04-09T09:03:10.640Z,24.50
2019-04-09T09:06:02.289Z,24.30
2019-04-09T09:08:37.195Z,24.30
2019-04-09T09:11:27.786Z,24.30
2019-04-09T09:14:22.932Z,24.50
2019-04-09T09:17:08.719Z,24.60
2019-04-09T09:19:55.290Z,25.00
2019-04-09T09:22:27.246Z,25.40
2019-04-09T09:25:04.046Z,25.50
2019-04-09T09:27:54.120Z,25.80
2019-04-09T09:30:56.164Z,25.90
2019-04-09T09:33:15.791Z,26.30
2019-04-09T09:36:06.141Z,26.30
2019-04-09T09:38:42.194Z,26.40
2019-04-09T09:41:30.771Z,26.60
2019-04-09T09:44:03.187Z,26.70
2019-04-09T09:46:42.415Z,26.80
2019-04-09T09:49:39.115Z,26.90
2019-04-09T09:52:28.013Z,27.40
2019-04-09T09:55:21.538Z,27.60
2019-04-09T09:57:52.473Z,27.80
2019-04-09T10:00:38.876Z,27.90
2019-04-09T10:03:11.365Z,28.10
2019-04-09T10:05:52.204Z,28.20
2019-04-09T10:08:43.825Z,28.30
2019-04-09T10:11:15.627Z,28.50
2019-04-09T10:13:47.264Z,28.70
2019-04-09T10:16:25.902Z,28.70
2019-04-09T10:19:22.104Z,28.80
2019-04-09T10:22:05.535Z,29.00
2019-04-09T10:24:40.389Z,29.10
2019-04-09T10:27:38.904Z,29.20
2019-04-09T10:30:20.405Z,29.30
2019-04-09T10:32:55.244Z,29.70
2019-04-09T10:35:36.110Z,29.80
2019-04-09T10:38:08.134Z,29.70
2019-04-09T10:40:56.647Z,29.90
2019-04-09T10:43:46.014Z,30.10
2019-04-09T10:46:31.964Z,30.30
2019-04-09T10:49:08.166Z,30.60
2019-04-09T10:51:43.219Z,30.70
2019-04-09T10:54:27.847Z,30.80
2019-04-09T10:57:19.474Z,30.70
2019-04-09T10:59:55.275Z,30.80
2019-04-09T11:02:33.186Z,30.80
2019-04-09T11:05:07.662Z,31.10
2019-04-09T11:10:34.327Z,31.30
2019-04-09T11:13:10.158Z,31.20
2019-04-09T11:15:42.659Z,31.10
2019-04-09T11:18:21.244Z,31.20
2019-04-09T11:21:01.024Z,31.20
2019-04-09T11:23:29.818Z,31.40
2019-04-09T11:26:18.086Z,31.70
2019-04-09T11:29:00.415Z,31.70
2019-04-09T11:31:53.321Z,31.80
2019-04-09T11:34:41.713Z,32.00
2019-04-09T11:37:19.412Z,32.10
2019-04-09T11:40:03.268Z,32.10
2019-04-09T11:42:37.504Z,31.90
2019-04-09T11:45:29.412Z,32.00
2019-04-09T11:48:05.634Z,32.00
2019-04-09T11:50:54.074Z,31.80
2019-04-09T11:53:37.578Z,31.60
2019-04-09T11:56:22.019Z,31.40
2019-04-09T11:59:05.324Z,31.30
2019-04-09T12:01:37.058Z,31.30
2019-04-09T12:04:21.483Z,31.70
2019-04-09T12:07:09.412Z,31.80
2019-04-09T12:09:41.135Z,31.80
2019-04-09T12:12:15.736Z,31.70
2019-04-09T12:14:48.325Z,31.60
2019-04-09T12:17:37.383Z,31.40
2019-04-09T12:20:16.901Z,31.40
2019-04-09T12:22:51.353Z,31.30
2019-04-09T12:25:28.792Z,31.30
2019-04-09T12:28:02.676Z,31.20
2019-04-09T12:30:36.860Z,31.10
2019-04-09T12:33:09.263Z,31.00
2019-04-09T12:35:57.286Z,31.00
2019-04-09T12:38:45.542Z,30.90
2019-04-09T12:41:17.327Z,30.90
2019-04-09T12:43:56.199Z,30.70
2019-04-09T12:46:29.068Z,30.60
2019-04-09T12:49:04.268Z,30.60
2019-04-09T12:51:35.784Z,30.70
2019-04-09T12:54:08.346Z,30.70
2019-04-09T12:56:55.419Z,30.70
2019-04-09T12:59:29.531Z,30.80
2019-04-09T13:02:00.901Z,30.70
2019-04-09T13:04:32.186Z,30.70
2019-04-09T13:07:21.632Z,30.70
2019-04-09T13:09:59.118Z,30.70
2019-04-09T13:12:46.526Z,30.70
2019-04-09T13:15:34.536Z,30.60
2019-04-09T13:18:06.784Z,30.50
2019-04-09T13:20:38.148Z,30.30
2019-04-09T13:23:09.607Z,30.00
2019-04-09T13:25:56.028Z,29.90
2019-04-09T13:28:32.383Z,29.80
2019-04-09T13:31:03.819Z,29.60
2019-04-09T13:33:35.171Z,29.50
2019-04-09T13:36:06.718Z,29.50
2019-04-09T13:38:43.703Z,29.30
2019-04-09T13:41:31.786Z,29.20
2019-04-09T13:44:09.127Z,29.30
2019-04-09T13:46:46.722Z,29.20
2019-04-09T13:49:18.870Z,29.20
2019-04-09T13:52:06.782Z,29.20
2019-04-09T13:54:37.430Z,29.20
2019-04-09T13:57:07.568Z,29.10
2019-04-09T13:59:38.352Z,29.10
2019-04-09T14:02:09.429Z,29.20
2019-04-09T14:04:43.895Z,29.10
2019-04-09T14:07:13.699Z,29.10
2019-04-09T14:09:43.925Z,29.00
2019-04-09T14:12:14.774Z,28.90
2019-04-09T14:14:44.947Z,28.90
2019-04-09T14:17:15.685Z,28.90
2019-04-09T14:19:52.740Z,28.90
2019-04-09T14:22:16.694Z,29.00
2019-04-09T14:24:47.174Z,28.90
2019-04-09T14:27:28.171Z,28.80
2019-04-09T14:29:49.359Z,28.60
2019-04-09T14:32:19.602Z,28.60
2019-04-09T14:34:49.452Z,28.50
2019-04-09T14:37:19.162Z,28.40
2019-04-09T14:39:49.071Z,28.40
2019-04-09T14:42:20.017Z,28.30
2019-04-09T14:44:49.753Z,28.30
2019-04-09T14:47:20.043Z,28.20
2019-04-09T14:49:49.951Z,28.10
2019-04-09T14:52:20.400Z,28.00
2019-04-09T14:54:50.420Z,27.80
2019-04-09T14:57:20.754Z,27.80
2019-04-09T14:59:50.592Z,27.20
2019-04-09T15:02:20.332Z,27.10
2019-04-09T15:04:50.334Z,27.00
2019-04-09T15:07:19.998Z,26.90
2019-04-09T15:09:49.983Z,26.70
2019-04-09T15:12:20.010Z,26.60
2019-04-09T15:14:51.018Z,26.50
2019-04-09T15:17:21.074Z,26.50
2019-04-09T15:19:50.786Z,26.40
2019-04-09T15:22:20.593Z,26.30
2019-04-09T15:24:51.045Z,26.10
2019-04-09T15:27:21.770Z,25.90
2019-04-09T15:29:52.198Z,25.70
2019-04-09T15:32:23.829Z,25.40
2019-04-09T15:34:53.633Z,25.20
2019-04-09T15:37:23.541Z,25.10
2019-04-09T15:39:54.356Z,25.00
2019-04-09T15:42:24.076Z,24.70
2019-04-09T15:44:53.907Z,24.50
2019-04-09T15:47:23.626Z,24.20
2019-04-09T15:49:54.464Z,24.00
2019-04-09T15:52:24.393Z,24.20
2019-04-09T15:54:54.853Z,24.30
2019-04-09T15:57:25.686Z,24.20
2019-04-09T15:59:55.833Z,24.10
2019-04-09T16:02:25.506Z,23.80
2019-04-09T16:04:58.795Z,23.50
2019-04-09T16:07:28.793Z,23.20
2019-04-09T16:09:58.495Z,23.00
2019-04-09T16:12:29.060Z,23.10
2019-04-09T16:14:58.887Z,23.10
2019-04-09T16:17:28.850Z,22.90
2019-04-09T16:19:58.765Z,22.70
2019-04-09T16:22:28.504Z,22.40
2019-04-09T16:24:59.193Z,22.10
2019-04-09T16:27:30.320Z,21.80
2019-04-09T16:30:01.076Z,21.70
2019-04-09T16:32:31.536Z,21.40
2019-04-09T16:35:01.402Z,21.40
2019-04-09T16:37:31.954Z,21.10
2019-04-09T16:40:02.591Z,20.90
2019-04-09T16:42:39.798Z,20.70
2019-04-09T16:45:08.216Z,20.60
2019-04-09T16:47:36.563Z,20.40
2019-04-09T16:50:08.284Z,20.50
2019-04-09T16:52:38.508Z,20.20
2019-04-09T16:55:08.726Z,20.20
2019-04-09T16:57:38.441Z,20.10
2019-04-09T17:00:11.424Z,19.90
2019-04-09T17:02:41.290Z,19.60
2019-04-09T17:05:11.250Z,19.60
2019-04-09T17:07:41.962Z,19.40
2019-04-09T17:10:12.067Z,19.40
2019-04-09T17:12:42.289Z,19.30
2019-04-09T17:15:13.389Z,19.10
2019-04-09T17:17:44.397Z,19.10
2019-04-09T17:20:14.855Z,19.00
2019-04-09T17:22:45.066Z,19.10
2019-04-09T17:25:16.485Z,19.10
2019-04-09T17:27:46.810Z,19.00
2019-04-09T17:30:17.692Z,18.90
2019-04-09T17:32:47.395Z,18.70
2019-04-09T17:35:17.045Z,19.00
2019-04-09T17:37:46.682Z,19.00
2019-04-09T17:40:17.426Z,18.90
2019-04-09T17:42:47.326Z,18.80
2019-04-09T17:45:18.040Z,18.80
2019-04-09T17:47:47.719Z,18.80
2019-04-09T17:50:17.965Z,18.80
2019-04-09T17:52:48.123Z,19.00
2019-04-09T17:55:18.970Z,19.00
2019-04-09T17:57:48.903Z,19.10
2019-04-09T18:00:22.098Z,18.80
2019-04-09T18:02:53.126Z,18.60
2019-04-09T18:05:23.190Z,18.40
2019-04-09T18:07:53.174Z,18.10
2019-04-09T18:10:23.393Z,18.10
2019-04-09T18:12:53.088Z,17.90
2019-04-09T18:15:23.195Z,17.80
2019-04-09T18:17:52.921Z,18.00
2019-04-09T18:20:22.685Z,18.00
2019-04-09T18:22:52.310Z,17.90
2019-04-09T18:25:22.050Z,17.50
2019-04-09T18:27:51.995Z,17.30
2019-04-09T18:30:22.311Z,17.20
2019-04-09T18:33:11.972Z,17.20
2019-04-09T18:35:41.999Z,17.20
2019-04-09T18:38:12.706Z,17.20
2019-04-09T18:40:43.090Z,17.10
2019-04-09T18:43:12.837Z,16.90
2019-04-09T18:45:43.553Z,16.90
2019-04-09T18:48:13.279Z,16.80
2019-04-09T18:50:43.348Z,16.80
2019-04-09T18:53:13.218Z,16.60
2019-04-09T18:55:42.901Z,16.50
2019-04-09T18:58:12.577Z,16.60
2019-04-09T19:00:42.390Z,16.50
2019-04-09T19:03:12.045Z,16.30
2019-04-09T19:05:42.825Z,16.20
2019-04-09T19:08:12.677Z,16.20
2019-04-09T19:10:43.311Z,16.10
2019-04-09T19:13:14.690Z,16.10
2019-04-09T19:15:45.885Z,16.00
2019-04-09T19:18:16.296Z,15.90
2019-04-09T19:20:49.084Z,15.70
2019-04-09T19:23:18.744Z,15.70
2019-04-09T19:25:48.592Z,15.60
2019-04-09T19:28:19.134Z,15.50
2019-04-09T19:30:49.255Z,15.50
2019-04-09T19:33:18.842Z,15.40
2019-04-09T19:35:49.895Z,15.50
2019-04-09T19:38:22.995Z,15.40
2019-04-09T19:40:58.737Z,15.50
2019-04-09T19:43:34.449Z,15.60
2019-04-09T19:46:06.721Z,15.50
2019-04-09T19:48:37.997Z,15.50
2019-04-09T19:51:09.023Z,15.40
2019-04-09T19:53:40.131Z,15.30
2019-04-09T19:56:10.999Z,15.20
2019-04-09T19:58:47.233Z,15.10
2019-04-09T20:01:12.453Z,15.10
2019-04-09T20:03:43.136Z,15.00
2019-04-09T20:06:13.450Z,15.00
2019-04-09T20:08:44.360Z,14.90
2019-04-09T20:11:15.221Z,15.00
2019-04-09T20:13:46.229Z,15.00
2019-04-09T20:16:17.117Z,14.80
2019-04-09T20:18:48.093Z,14.60
2019-04-09T20:21:18.765Z,14.70
2019-04-09T20:23:49.063Z,14.60
2019-04-09T20:26:20.025Z,14.50
2019-04-09T20:28:50.808Z,14.40
2019-04-09T20:31:20.797Z,14.20
2019-04-09T20:33:51.747Z,14.10
2019-04-09T20:36:42.982Z,14.00
2019-04-09T20:39:13.811Z,14.00
2019-04-09T20:41:44.132Z,13.80
2019-04-09T20:44:14.002Z,13.80
2019-04-09T20:46:44.266Z,13.70
2019-04-09T20:49:14.795Z,13.70
2019-04-09T20:51:44.590Z,13.70
2019-04-09T20:54:16.395Z,13.70
2019-04-09T20:56:46.164Z,13.60
2019-04-09T20:59:35.649Z,13.60
2019-04-09T21:02:20.126Z,13.60
2019-04-09T21:04:50.010Z,13.50
2019-04-09T21:07:20.093Z,13.50
2019-04-09T21:09:50.068Z,13.50
2019-04-09T21:12:20.020Z,13.60
2019-04-09T21:14:51.193Z,13.60
2019-04-09T21:17:21.773Z,13.50
2019-04-09T21:19:51.602Z,13.40
2019-04-09T21:22:21.482Z,13.30
2019-04-09T21:24:52.102Z,13.30
2019-04-09T21:27:21.961Z,13.20
2019-04-09T21:29:59.715Z,13.30
2019-04-09T21:32:31.370Z,13.30
2019-04-09T21:35:01.306Z,13.10
2019-04-09T21:37:31.188Z,13.00
2019-04-09T21:40:00.830Z,13.00
2019-04-09T21:42:31.615Z,13.00
2019-04-09T21:45:01.423Z,13.00
2019-04-09T21:47:32.301Z,13.00
2019-04-09T21:50:02.760Z,13.00
2019-04-09T21:52:32.728Z,13.00
2019-04-09T21:55:02.554Z,13.00
2019-04-09T21:57:32.349Z,12.90
2019-04-09T22:00:02.188Z,12.90
2019-04-09T22:02:32.138Z,12.90
2019-04-09T22:05:01.952Z,12.90
2019-04-09T22:07:32.725Z,12.80
2019-04-09T22:10:05.170Z,12.70
2019-04-09T22:12:47.735Z,12.70
2019-04-09T22:15:18.630Z,12.80
2019-04-09T22:17:48.701Z,12.70
2019-04-09T22:20:18.467Z,12.70
2019-04-09T22:22:49.524Z,12.70
2019-04-09T22:25:19.252Z,12.70
2019-04-09T22:27:49.845Z,12.70
2019-04-09T22:30:20.639Z,12.70
2019-04-09T22:32:51.155Z,12.60
2019-04-09T22:35:21.825Z,12.60
2019-04-09T22:37:51.864Z,12.50
2019-04-09T22:40:21.799Z,12.50
2019-04-09T22:42:51.617Z,12.50
2019-04-09T22:45:21.474Z,12.50
2019-04-09T22:47:51.537Z,12.50
2019-04-09T22:50:21.865Z,12.40
2019-04-09T22:52:52.121Z,12.40
2019-04-09T22:55:22.406Z,12.40
2019-04-09T22:57:52.731Z,12.40
2019-04-09T23:00:24.324Z,12.30
2019-04-09T23:03:11.984Z,12.30
2019-04-09T23:05:43.394Z,12.30
2019-04-09T23:08:18.234Z,12.30
2019-04-09T23:10:56.369Z,12.20
2019-04-09T23:13:26.911Z,12.10
2019-04-09T23:15:57.350Z,12.00
2019-04-09T23:18:27.253Z,12.00
2019-04-09T23:20:56.988Z,12.00
2019-04-09T23:23:26.955Z,12.00
2019-04-09T23:25:57.305Z,11.90
2019-04-09T23:28:27.512Z,11.90
2019-04-09T23:30:58.725Z,11.80
2019-04-09T23:33:28.774Z,11.70
2019-04-09T23:35:59.383Z,11.70
2019-04-09T23:38:29.219Z,11.70
2019-04-09T23:40:59.709Z,11.70
2019-04-09T23:43:30.020Z,11.60
2019-04-09T23:45:59.762Z,11.60
2019-04-09T23:48:30.351Z,11.60
2019-04-09T23:51:03.712Z,11.50
2019-04-09T23:53:32.803Z,11.40
2019-04-09T23:56:03.188Z,11.40
2019-04-09T23:58:33.387Z,11.30
